createdAt,value
2022-08-22T00:00:13.643Z,2.40
2022-08-22T00:02:59.625Z,2.70
2022-08-22T00:03:07.734Z,2.78
2022-08-22T00:03:10.013Z,2.85
2022-08-22T00:03:12.457Z,2.95
2022-08-22T00:05:51.123Z,2.88
2022-08-22T00:08:27.217Z,3.15
2022-08-22T00:11:02.614Z,3.53
2022-08-22T00:13:37.353Z,3.22
2022-08-22T00:16:14.539Z,2.90
2022-08-22T00:18:49.612Z,2.92
2022-08-22T00:21:22.752Z,2.67
2022-08-22T00:24:00.020Z,2.72
2022-08-22T00:26:42.188Z,3.05
2022-08-22T00:31:50.156Z,3.30
2022-08-22T00:37:00.922Z,16.88
2022-08-22T00:39:32.984Z,10.77
2022-08-22T00:42:31.220Z,5.13
2022-08-22T00:45:43.332Z,3.97
2022-08-22T00:48:39.210Z,3.05
2022-08-22T00:51:22.444Z,3.22
2022-08-22T00:53:54.431Z,3.15
2022-08-22T00:56:45.206Z,3.42
2022-08-22T00:59:38.693Z,3.20
2022-08-22T01:02:18.980Z,3.08
2022-08-22T01:05:03.682Z,3.20
2022-08-22T01:07:49.188Z,2.70
2022-08-22T01:10:34.022Z,3.03
2022-08-22T01:13:20.421Z,3.53
2022-08-22T01:15:51.256Z,3.25
2022-08-22T01:18:51.645Z,3.40
2022-08-22T01:21:52.019Z,4.10
2022-08-22T01:25:22.469Z,3.55
2022-08-22T01:28:27.324Z,3.05
2022-08-22T01:31:37.259Z,3.67
2022-08-22T01:34:33.525Z,3.50
2022-08-22T01:37:43.871Z,3.20
2022-08-22T01:40:53.848Z,3.10
2022-08-22T01:44:00.180Z,3.40
2022-08-22T01:46:45.914Z,3.50
2022-08-22T01:49:22.228Z,3.33
2022-08-22T01:51:58.425Z,3.42
2022-08-22T01:54:36.766Z,2.97
2022-08-22T01:57:08.706Z,3.30
2022-08-22T01:59:42.229Z,3.22
2022-08-22T02:02:36.410Z,3.03
2022-08-22T02:05:13.726Z,3.22
2022-08-22T02:07:49.627Z,3.25
2022-08-22T02:10:24.211Z,3.58
2022-08-22T02:13:03.426Z,3.78
2022-08-22T02:15:47.992Z,3.35
2022-08-22T02:18:25.904Z,4.13
2022-08-22T02:21:06.128Z,4.00
2022-08-22T02:23:45.568Z,3.25
2022-08-22T02:26:17.745Z,3.45
2022-08-22T02:28:57.865Z,3.42
2022-08-22T02:31:49.366Z,3.85
2022-08-22T02:34:35.233Z,3.97
2022-08-22T02:37:19.040Z,4.28
2022-08-22T02:39:51.896Z,3.78
2022-08-22T02:42:27.466Z,4.07
2022-08-22T02:45:04.621Z,4.30
2022-08-22T02:47:40.169Z,3.72
2022-08-22T02:50:19.745Z,4.47
2022-08-22T02:52:58.599Z,3.28
2022-08-22T02:55:49.194Z,3.95
2022-08-22T02:58:29.081Z,3.78
2022-08-22T03:01:19.319Z,3.67
2022-08-22T03:03:48.427Z,3.85
2022-08-22T03:06:37.599Z,3.65
2022-08-22T03:09:24.095Z,3.25
2022-08-22T03:12:05.078Z,3.38
2022-08-22T03:14:36.564Z,3.67
2022-08-22T03:17:10.796Z,3.45
2022-08-22T03:19:56.858Z,3.58
2022-08-22T03:22:34.780Z,3.72
2022-08-22T03:25:13.838Z,3.92
2022-08-22T03:27:48.289Z,3.95
2022-08-22T03:30:22.543Z,3.88
2022-08-22T03:32:55.779Z,3.50
2022-08-22T03:35:28.131Z,3.35
2022-08-22T03:38:12.688Z,3.55
2022-08-22T03:40:57.574Z,3.70
2022-08-22T03:43:45.009Z,3.83
2022-08-22T03:46:34.720Z,3.63
2022-08-22T03:49:23.733Z,4.10
2022-08-22T03:52:10.868Z,4.68
2022-08-22T03:54:52.339Z,5.15
2022-08-22T03:57:50.828Z,4.93
2022-08-22T04:00:29.784Z,4.60
2022-08-22T04:03:17.788Z,4.68
2022-08-22T04:06:11.496Z,4.20
2022-08-22T04:12:16.553Z,4.57
2022-08-22T04:15:22.690Z,5.00
2022-08-22T04:18:23.489Z,4.78
2022-08-22T04:21:13.005Z,4.30
2022-08-22T04:24:01.193Z,5.00
2022-08-22T04:26:38.353Z,4.88
2022-08-22T04:29:09.870Z,5.07
2022-08-22T04:31:46.213Z,4.30
2022-08-22T04:34:29.620Z,4.45
2022-08-22T04:37:02.264Z,4.88
2022-08-22T04:39:36.962Z,4.70
2022-08-22T04:42:31.874Z,5.57
2022-08-22T04:45:08.444Z,5.50
2022-08-22T04:47:40.088Z,4.82
2022-08-22T04:50:18.640Z,5.97
2022-08-22T04:53:23.158Z,5.55
2022-08-22T04:56:03.029Z,5.07
2022-08-22T04:58:43.226Z,4.90
2022-08-22T05:01:16.740Z,5.13
2022-08-22T05:03:52.469Z,5.23
2022-08-22T05:06:27.032Z,5.22
2022-08-22T05:11:24.929Z,5.57
2022-08-22T05:13:57.750Z,5.45
2022-08-22T05:16:29.961Z,5.70
2022-08-22T05:19:04.680Z,5.32
2022-08-22T05:21:38.667Z,5.10
2022-08-22T05:24:11.082Z,5.72
2022-08-22T05:26:44.341Z,6.28
2022-08-22T05:29:18.420Z,4.78
2022-08-22T05:31:51.169Z,5.82
2022-08-22T05:34:22.662Z,5.68
2022-08-22T05:36:58.454Z,5.05
2022-08-22T05:39:29.817Z,5.43
2022-08-22T05:42:00.767Z,5.53
2022-08-22T05:44:32.852Z,6.43
2022-08-22T05:47:04.430Z,5.88
2022-08-22T05:49:38.958Z,6.15
2022-08-22T05:52:20.320Z,6.05
2022-08-22T05:54:57.032Z,6.03
2022-08-22T06:00:04.003Z,5.97
2022-08-22T06:02:52.107Z,5.78
2022-08-22T06:05:28.506Z,6.68
2022-08-22T06:08:08.383Z,5.90
2022-08-22T06:10:43.065Z,6.10
2022-08-22T06:13:14.741Z,6.63
2022-08-22T06:15:48.183Z,6.45
2022-08-22T06:18:20.801Z,6.28
2022-08-22T06:20:53.493Z,6.40
2022-08-22T06:23:27.888Z,5.85
2022-08-22T06:25:59.993Z,6.70
2022-08-22T06:28:33.208Z,6.75
2022-08-22T06:31:03.466Z,6.65
2022-08-22T06:33:38.363Z,5.60
2022-08-22T06:36:30.151Z,6.43
2022-08-22T06:39:07.465Z,5.95
2022-08-22T06:41:40.900Z,6.05
2022-08-22T06:44:17.197Z,6.00
2022-08-22T06:46:48.007Z,5.88
2022-08-22T06:49:16.682Z,5.82
2022-08-22T06:51:45.991Z,5.90
2022-08-22T06:54:21.608Z,5.25
2022-08-22T06:56:52.217Z,5.70
2022-08-22T06:59:25.196Z,5.47
2022-08-22T07:01:57.505Z,5.72
2022-08-22T07:04:27.652Z,4.40
2022-08-22T07:06:58.170Z,5.10
2022-08-22T07:09:33.042Z,5.15
2022-08-22T07:12:04.025Z,5.32
2022-08-22T07:14:39.631Z,5.25
2022-08-22T07:17:09.319Z,4.60
2022-08-22T07:19:40.155Z,4.20
2022-08-22T07:22:14.492Z,4.97
2022-08-22T07:24:48.265Z,5.13
2022-08-22T07:27:27.112Z,5.32
2022-08-22T07:30:03.001Z,4.93
2022-08-22T07:32:42.051Z,4.75
2022-08-22T07:35:15.745Z,4.45
2022-08-22T07:37:57.050Z,4.38
2022-08-22T07:40:33.799Z,4.60
2022-08-22T07:43:09.321Z,4.47
2022-08-22T07:45:49.320Z,4.32
2022-08-22T07:48:26.637Z,3.75
2022-08-22T07:51:05.292Z,4.20
2022-08-22T07:53:41.222Z,4.50
2022-08-22T07:56:16.906Z,4.10
2022-08-22T07:58:49.298Z,4.10
2022-08-22T08:01:21.101Z,4.18
2022-08-22T08:03:54.695Z,3.85
2022-08-22T08:06:24.609Z,4.63
2022-08-22T08:08:54.037Z,4.00
2022-08-22T08:11:26.351Z,4.03
2022-08-22T08:13:57.404Z,4.38
2022-08-22T08:16:27.987Z,3.70
2022-08-22T08:19:00.382Z,4.10
2022-08-22T08:21:31.212Z,4.32
2022-08-22T08:24:01.186Z,4.10
2022-08-22T08:26:34.780Z,4.05
2022-08-22T08:29:03.614Z,3.33
2022-08-22T08:31:35.406Z,4.25
2022-08-22T08:34:07.675Z,3.92
2022-08-22T08:36:47.471Z,3.30
2022-08-22T08:39:22.233Z,3.90
2022-08-22T08:42:23.242Z,3.15
2022-08-22T08:45:14.167Z,3.33
2022-08-22T08:48:01.102Z,3.72
2022-08-22T08:50:51.993Z,3.70
2022-08-22T08:53:50.849Z,3.33
2022-08-22T08:56:30.901Z,3.58
2022-08-22T08:59:10.556Z,3.92
2022-08-22T09:02:06.649Z,3.60
2022-08-22T09:05:07.001Z,3.60
2022-08-22T09:07:55.800Z,3.60
2022-08-22T09:10:39.596Z,3.45
2022-08-22T09:13:43.456Z,3.63
2022-08-22T09:16:34.713Z,3.30
2022-08-22T09:19:49.120Z,3.53
2022-08-22T09:22:56.940Z,3.10
2022-08-22T09:25:39.201Z,3.10
2022-08-22T09:30:59.208Z,3.30
2022-08-22T09:33:37.510Z,3.35
2022-08-22T09:36:13.236Z,3.47
2022-08-22T09:38:55.333Z,3.53
2022-08-22T09:41:39.695Z,3.35
2022-08-22T09:44:17.644Z,3.22
2022-08-22T09:46:55.338Z,3.58
2022-08-22T09:49:35.693Z,3.70
2022-08-22T09:52:15.555Z,3.10
2022-08-22T09:55:08.559Z,3.08
2022-08-22T09:57:41.888Z,3.10
2022-08-22T10:00:22.300Z,3.47
2022-08-22T10:03:02.285Z,3.65
2022-08-22T10:05:44.244Z,3.00
2022-08-22T10:08:20.329Z,3.05
2022-08-22T10:11:07.242Z,2.88
2022-08-22T10:13:52.875Z,2.90
2022-08-22T10:16:37.003Z,2.88
2022-08-22T10:19:16.939Z,2.90
2022-08-22T10:22:29.888Z,3.13
2022-08-22T10:25:31.152Z,3.03
2022-08-22T10:28:14.796Z,3.17
2022-08-22T10:30:54.779Z,2.70
2022-08-22T10:33:29.360Z,3.10
2022-08-22T10:36:04.951Z,2.97
2022-08-22T10:38:46.303Z,2.90
2022-08-22T10:41:26.848Z,3.10
2022-08-22T10:44:06.018Z,3.40
2022-08-22T10:46:42.237Z,2.90
2022-08-22T10:49:19.545Z,2.85
2022-08-22T10:51:52.805Z,3.15
2022-08-22T10:54:38.408Z,3.20
2022-08-22T10:57:24.487Z,2.63
2022-08-22T11:00:02.322Z,2.60
2022-08-22T11:02:42.431Z,2.83
2022-08-22T11:05:37.282Z,2.92
2022-08-22T11:08:23.651Z,2.70
2022-08-22T11:11:07.624Z,2.83
2022-08-22T11:13:43.644Z,2.72
2022-08-22T11:16:24.292Z,2.88
2022-08-22T11:19:15.365Z,2.83
2022-08-22T11:21:50.993Z,3.22
2022-08-22T11:24:55.376Z,3.00
2022-08-22T11:27:39.919Z,2.83
2022-08-22T11:30:18.602Z,3.10
2022-08-22T11:33:11.071Z,2.65
2022-08-22T11:35:49.993Z,2.67
2022-08-22T11:38:32.890Z,2.60
2022-08-22T11:41:06.896Z,2.75
2022-08-22T11:43:50.475Z,2.65
2022-08-22T11:46:25.558Z,2.67
2022-08-22T11:49:19.718Z,2.70
2022-08-22T11:52:05.997Z,2.35
2022-08-22T11:54:49.574Z,2.75
2022-08-22T11:57:29.282Z,2.58
2022-08-22T12:00:10.097Z,2.47
2022-08-22T12:02:50.157Z,2.10
2022-08-22T12:05:24.648Z,2.25
2022-08-22T12:08:03.167Z,4.03
2022-08-22T12:10:34.784Z,2.60
2022-08-22T12:13:09.226Z,2.20
2022-08-22T12:15:47.273Z,2.28
2022-08-22T12:18:36.067Z,2.25
2022-08-22T12:21:31.563Z,2.03
2022-08-22T12:24:46.991Z,2.30
2022-08-22T12:27:34.789Z,2.80
2022-08-22T12:30:14.699Z,2.10
2022-08-22T12:33:22.076Z,2.17
2022-08-22T12:36:18.482Z,2.10
2022-08-22T12:39:02.403Z,2.45
2022-08-22T12:41:48.309Z,2.10
2022-08-22T12:44:34.761Z,2.50
2022-08-22T12:47:14.293Z,2.67
2022-08-22T12:50:03.658Z,2.77
2022-08-22T12:52:49.988Z,2.70
2022-08-22T12:55:35.740Z,2.65
2022-08-22T12:58:13.555Z,2.40
2022-08-22T13:00:45.175Z,2.80
2022-08-22T13:03:24.741Z,2.55
2022-08-22T13:05:57.235Z,2.42
2022-08-22T13:08:32.131Z,2.58
2022-08-22T13:11:03.009Z,3.00
2022-08-22T13:13:38.650Z,2.63
2022-08-22T13:16:09.051Z,2.70
2022-08-22T13:18:48.288Z,2.70
2022-08-22T13:21:31.567Z,2.47
2022-08-22T13:24:10.300Z,2.70
2022-08-22T13:26:49.447Z,2.58
2022-08-22T13:29:26.033Z,2.30
2022-08-22T13:31:59.149Z,2.78
2022-08-22T13:34:40.037Z,3.35
2022-08-22T13:37:15.992Z,4.00
2022-08-22T13:39:49.194Z,2.92
2022-08-22T13:42:30.016Z,2.72
2022-08-22T13:45:04.871Z,2.42
2022-08-22T13:47:39.248Z,2.75
2022-08-22T13:50:13.860Z,2.88
2022-08-22T13:52:52.243Z,2.78
2022-08-22T13:55:29.414Z,2.40
2022-08-22T13:58:03.346Z,2.60
2022-08-22T14:01:06.811Z,2.50
2022-08-22T14:03:41.218Z,2.60
2022-08-22T14:06:37.171Z,2.78
2022-08-22T14:09:17.358Z,2.67
2022-08-22T14:12:11.747Z,2.38
2022-08-22T14:14:46.136Z,2.63
2022-08-22T14:17:22.036Z,2.30
2022-08-22T14:19:59.428Z,2.67
2022-08-22T14:22:34.778Z,2.70
2022-08-22T14:25:09.159Z,2.60
2022-08-22T14:27:43.855Z,2.50
2022-08-22T14:30:17.271Z,3.13
2022-08-22T14:35:35.382Z,2.60
2022-08-22T14:38:27.250Z,2.50
2022-08-22T14:41:03.348Z,2.50
2022-08-22T14:46:23.811Z,2.70
2022-08-22T14:49:24.926Z,2.67
2022-08-22T14:52:00.142Z,2.78
2022-08-22T14:54:31.533Z,4.30
2022-08-22T14:57:04.061Z,3.10
2022-08-22T14:59:50.233Z,3.10
2022-08-22T15:02:26.493Z,2.83
2022-08-22T15:04:56.435Z,2.78
2022-08-22T15:07:26.998Z,2.45
2022-08-22T15:10:01.131Z,3.40
2022-08-22T15:12:35.040Z,2.70
2022-08-22T15:15:06.849Z,2.33
2022-08-22T15:17:44.380Z,2.80
2022-08-22T15:20:27.969Z,3.00
2022-08-22T15:22:57.574Z,3.30
2022-08-22T15:25:29.820Z,2.85
2022-08-22T15:30:37.423Z,2.45
2022-08-22T15:33:11.723Z,2.60
2022-08-22T15:35:40.939Z,2.70
2022-08-22T15:38:25.057Z,2.65
2022-08-22T15:40:56.996Z,2.88
2022-08-22T15:43:35.103Z,2.83
2022-08-22T15:46:18.346Z,3.00
2022-08-22T15:48:56.908Z,2.97
2022-08-22T15:51:39.647Z,2.67
2022-08-22T15:54:24.354Z,2.70
2022-08-22T15:57:17.235Z,3.00
2022-08-22T15:59:55.656Z,3.33
2022-08-22T16:02:28.815Z,2.97
2022-08-22T16:05:20.082Z,2.70
2022-08-22T16:07:59.427Z,2.72
2022-08-22T16:10:35.263Z,2.65
2022-08-22T16:13:26.569Z,2.80
2022-08-22T16:16:04.815Z,2.97
2022-08-22T16:19:16.072Z,2.85
2022-08-22T16:22:11.567Z,2.40
2022-08-22T16:24:59.744Z,2.90
2022-08-22T16:27:29.213Z,2.58
2022-08-22T16:30:12.173Z,2.95
2022-08-22T16:32:51.417Z,3.07
2022-08-22T16:35:52.693Z,2.38
2022-08-22T16:38:26.488Z,2.33
2022-08-22T16:40:54.543Z,2.60
2022-08-22T16:43:23.096Z,2.60
2022-08-22T16:45:56.962Z,2.47
2022-08-22T16:48:35.099Z,2.50
2022-08-22T16:51:06.206Z,2.42
2022-08-22T16:54:09.703Z,2.35
2022-08-22T16:56:50.113Z,2.90
2022-08-22T16:59:29.621Z,2.60
2022-08-22T17:02:27.462Z,2.72
2022-08-22T17:05:19.376Z,2.65
2022-08-22T17:08:02.128Z,2.60
2022-08-22T17:10:47.153Z,2.67
2022-08-22T17:13:27.513Z,3.17
2022-08-22T17:16:07.622Z,2.83
2022-08-22T17:18:48.974Z,2.65
2022-08-22T17:21:26.423Z,2.92
2022-08-22T17:24:07.316Z,2.42
2022-08-22T17:26:50.951Z,2.72
2022-08-22T17:29:35.634Z,3.28
2022-08-22T17:32:16.319Z,3.33
2022-08-22T17:34:56.063Z,3.92
2022-08-22T17:37:43.074Z,2.55
2022-08-22T17:40:31.637Z,2.55
2022-08-22T17:43:10.583Z,2.60
2022-08-22T17:45:51.937Z,4.85
2022-08-22T17:48:25.757Z,2.85
2022-08-22T17:50:57.526Z,2.63
2022-08-22T17:53:38.649Z,2.90
2022-08-22T17:56:15.456Z,3.22
2022-08-22T17:58:50.073Z,2.42
2022-08-22T18:01:37.605Z,2.63
2022-08-22T18:04:09.220Z,3.55
2022-08-22T18:06:39.930Z,4.90
2022-08-22T18:09:20.088Z,4.35
2022-08-22T18:11:54.789Z,7.05
2022-08-22T18:14:31.087Z,8.30
2022-08-22T18:17:00.916Z,4.15
2022-08-22T18:19:43.348Z,2.97
2022-08-22T18:22:19.134Z,2.78
2022-08-22T18:24:58.162Z,2.90
2022-08-22T18:27:35.169Z,2.90
2022-08-22T18:30:08.175Z,2.60
2022-08-22T18:32:44.108Z,2.75
2022-08-22T18:35:18.181Z,2.78
2022-08-22T18:37:56.059Z,3.10
2022-08-22T18:40:34.119Z,2.97
2022-08-22T18:43:17.695Z,2.60
2022-08-22T18:46:03.261Z,3.25
2022-08-22T18:48:49.548Z,2.58
2022-08-22T18:51:29.370Z,2.90
2022-08-22T18:54:18.330Z,2.78
2022-08-22T18:56:54.034Z,2.60
2022-08-22T18:59:41.729Z,2.70
2022-08-22T19:02:28.708Z,2.85
2022-08-22T19:05:16.477Z,2.38
2022-08-22T19:08:22.837Z,3.13
2022-08-22T19:11:04.762Z,3.80
2022-08-22T19:14:08.086Z,3.03
2022-08-22T19:17:15.063Z,2.92
2022-08-22T19:20:13.602Z,3.35
2022-08-22T19:22:41.600Z,3.65
2022-08-22T19:25:18.073Z,2.60
2022-08-22T19:27:48.476Z,2.80
2022-08-22T19:30:42.121Z,2.97
2022-08-22T19:33:13.101Z,2.97
2022-08-22T19:36:06.514Z,2.92
2022-08-22T19:38:58.602Z,3.03
2022-08-22T19:41:42.678Z,3.38
2022-08-22T19:44:13.612Z,3.30
2022-08-22T19:46:43.178Z,3.90
2022-08-22T19:49:29.407Z,2.80
2022-08-22T19:52:11.870Z,2.70
2022-08-22T19:54:50.068Z,2.70
2022-08-22T19:57:25.301Z,2.88
2022-08-22T20:00:01.233Z,3.25
2022-08-22T20:02:38.595Z,3.15
2022-08-22T20:05:29.670Z,3.15
2022-08-22T20:08:21.554Z,2.65
2022-08-22T20:11:09.467Z,3.00
2022-08-22T20:13:38.594Z,2.95
2022-08-22T20:16:17.140Z,3.00
2022-08-22T20:19:02.247Z,3.00
2022-08-22T20:21:55.068Z,3.40
2022-08-22T20:24:29.931Z,3.60
2022-08-22T20:27:16.007Z,2.90
2022-08-22T20:29:51.426Z,2.85
2022-08-22T20:32:22.993Z,3.08
2022-08-22T20:34:56.913Z,2.95
2022-08-22T20:37:56.205Z,2.88
2022-08-22T20:40:57.009Z,3.03
2022-08-22T20:43:34.082Z,3.15
2022-08-22T20:46:15.204Z,2.97
2022-08-22T20:48:46.455Z,3.00
2022-08-22T20:51:18.078Z,3.58
2022-08-22T20:53:54.247Z,3.72
2022-08-22T20:56:37.138Z,3.25
2022-08-22T20:59:21.145Z,3.00
2022-08-22T21:01:57.275Z,3.78
2022-08-22T21:04:31.118Z,3.38
2022-08-22T21:07:02.720Z,2.90
2022-08-22T21:09:49.569Z,3.13
2022-08-22T21:12:17.441Z,3.15
2022-08-22T21:14:46.979Z,2.75
2022-08-22T21:17:25.880Z,3.08
2022-08-22T21:19:54.350Z,2.72
2022-08-22T21:22:31.609Z,2.97
2022-08-22T21:25:01.766Z,3.30
2022-08-22T21:27:32.091Z,2.67
2022-08-22T21:30:01.793Z,2.80
2022-08-22T21:32:34.485Z,2.95
2022-08-22T21:35:04.109Z,2.70
2022-08-22T21:37:39.675Z,2.83
2022-08-22T21:40:16.298Z,3.03
2022-08-22T21:42:46.913Z,2.95
2022-08-22T21:45:28.465Z,3.08
2022-08-22T21:47:56.726Z,3.03
2022-08-22T21:50:34.639Z,2.65
2022-08-22T21:53:11.914Z,2.80
2022-08-22T21:55:44.270Z,2.90
2022-08-22T21:58:36.288Z,3.40
2022-08-22T22:01:27.352Z,3.30
2022-08-22T22:03:55.721Z,3.50
2022-08-22T22:06:23.595Z,3.20
2022-08-22T22:08:51.862Z,3.13
2022-08-22T22:11:21.155Z,3.03
2022-08-22T22:13:49.465Z,3.10
2022-08-22T22:16:23.098Z,2.90
2022-08-22T22:18:51.197Z,2.90
2022-08-22T22:21:19.157Z,3.30
2022-08-22T22:23:47.047Z,2.97
2022-08-22T22:26:15.213Z,3.15
2022-08-22T22:28:47.780Z,2.92
2022-08-22T22:31:18.166Z,3.35
2022-08-22T22:33:46.600Z,3.38
2022-08-22T22:36:17.299Z,3.65
2022-08-22T22:38:46.108Z,2.72
2022-08-22T22:41:14.304Z,2.95
2022-08-22T22:43:44.663Z,2.90
2022-08-22T22:46:12.425Z,3.10
2022-08-22T22:48:40.264Z,3.20
2022-08-22T22:51:09.601Z,3.13
2022-08-22T22:53:42.586Z,3.20
2022-08-22T22:56:13.073Z,2.90
2022-08-22T22:58:42.465Z,3.65
2022-08-22T23:01:16.123Z,3.08
2022-08-22T23:03:44.434Z,3.55
2022-08-22T23:06:13.200Z,3.97
2022-08-22T23:08:41.589Z,3.33
2022-08-22T23:11:12.116Z,3.30
2022-08-22T23:13:43.072Z,3.47
2022-08-22T23:16:14.988Z,3.10
2022-08-22T23:18:43.651Z,2.80
2022-08-22T23:21:12.990Z,3.15
2022-08-22T23:23:40.879Z,3.55
2022-08-22T23:26:09.001Z,3.70
2022-08-22T23:28:37.497Z,3.35
2022-08-22T23:31:20.308Z,3.58
2022-08-22T23:33:48.589Z,3.25
2022-08-22T23:36:18.801Z,3.10
2022-08-22T23:38:47.546Z,3.63
2022-08-22T23:41:17.863Z,3.47
2022-08-22T23:43:48.569Z,3.28
2022-08-22T23:46:19.390Z,2.92
2022-08-22T23:48:47.863Z,3.65
2022-08-22T23:51:23.125Z,3.60
2022-08-22T23:53:51.755Z,2.85
2022-08-22T23:56:23.321Z,3.25
2022-08-22T23:58:53.284Z,3.78
